Time;durP1;ratioP1;P1;durP2;ratioP2;P2;SDS_P1;SDS_P2;PMS_P1;PMS_P2;Temp;Humidity;BMP_temperature;BMP_pressure;BME280_temperature;BME280_humidity;BME280_pressure;Samples;Min_cycle;Max_cycle;Signal;HPM_P1;HPM_P2
2021/12/10 00:00:13;;;;;;;1.38;0.90;;;;;;;13.97;44.18;95724.06;5034774;28;20037;-28
2021/12/10 00:02:45;;;;;;;1.80;1.23;;;;;;;13.94;44.26;95720.31;5034176;28;20025;-28
2021/12/10 00:05:15;;;;;;;2.33;1.60;;;;;;;13.96;44.06;95728.00;5034292;28;20021;-28
2021/12/10 00:07:42;;;;;;;3.08;1.80;;;;;;;13.93;44.23;95726.97;5034234;28;20048;-28
2021/12/10 00:10:15;;;;;;;3.60;1.90;;;;;;;13.93;44.50;95721.50;5034085;28;20025;-28
2021/12/10 00:12:49;;;;;;;3.20;1.80;;;;;;;13.91;44.46;95715.78;5034244;28;20032;-28
2021/12/10 00:15:15;;;;;;;3.13;2.08;;;;;;;13.91;44.30;95725.91;5033990;28;20052;-28
2021/12/10 00:17:41;;;;;;;4.43;2.00;;;;;;;13.84;44.47;95721.59;5034114;28;20036;-28
2021/12/10 00:20:08;;;;;;;3.47;1.83;;;;;;;13.90;44.42;95721.69;5033800;28;20384;-28
2021/12/10 00:22:40;;;;;;;3.83;1.90;;;;;;;13.81;44.80;95719.03;5034026;28;20021;-28
2021/12/10 00:25:15;;;;;;;3.05;1.77;;;;;;;13.84;44.51;95732.50;5034094;28;20080;-28
2021/12/10 00:27:42;;;;;;;2.67;1.70;;;;;;;13.84;44.43;95731.72;5033697;28;20033;-28
2021/12/10 00:30:24;;;;;;;2.88;1.45;;;;;;;13.86;44.46;95730.03;5032548;28;20105;-28
2021/12/10 00:33:02;;;;;;;2.87;1.93;;;;;;;13.82;44.59;95729.47;5034151;28;20021;-28
2021/12/10 00:35:31;;;;;;;4.63;2.05;;;;;;;13.90;44.38;95730.63;5033704;28;20471;-28
2021/12/10 00:37:57;;;;;;;2.22;1.52;;;;;;;13.85;44.20;95731.25;5033891;28;20394;-28
2021/12/10 00:40:25;;;;;;;2.20;1.50;;;;;;;13.88;44.07;95737.75;5033616;28;20025;-28
2021/12/10 00:42:51;;;;;;;2.25;1.52;;;;;;;13.80;44.20;95742.78;5033686;28;20026;-28
2021/12/10 00:45:18;;;;;;;2.92;1.80;;;;;;;13.85;44.20;95739.41;5030361;28;20030;-28
2021/12/10 00:47:45;;;;;;;2.55;1.60;;;;;;;13.85;44.20;95738.66;5031882;28;20026;-28
2021/12/10 00:50:17;;;;;;;3.15;1.75;;;;;;;13.81;44.09;95749.75;5033569;28;20029;-28
2021/12/10 00:52:44;;;;;;;2.95;1.98;;;;;;;13.84;44.16;95759.75;5032239;28;20368;-28
2021/12/10 00:55:10;;;;;;;3.25;1.95;;;;;;;13.79;44.21;95773.25;5033456;28;20104;-28
2021/12/10 00:57:36;;;;;;;3.28;1.80;;;;;;;13.80;43.93;95774.75;5033313;28;20045;-28
2021/12/10 01:00:09;;;;;;;2.33;1.67;;;;;;;13.78;44.18;95772.47;5033351;28;20026;-28
2021/12/10 01:02:34;;;;;;;3.75;2.25;;;;;;;13.78;43.92;95771.72;5033415;28;20029;-28
2021/12/10 01:05:00;;;;;;;3.78;1.65;;;;;;;13.73;44.29;95778.56;5033289;28;20040;-28
2021/12/10 01:07:34;;;;;;;2.25;1.60;;;;;;;13.76;43.71;95788.53;5033319;28;20030;-28
2021/12/10 01:10:18;;;;;;;2.55;1.80;;;;;;;13.74;44.00;95784.75;5033232;28;20017;-28
2021/12/10 01:12:48;;;;;;;2.78;1.55;;;;;;;13.73;43.88;95792.19;5033317;28;20025;-28
2021/12/10 01:15:43;;;;;;;3.35;1.45;;;;;;;13.74;43.72;95790.22;5033180;28;20021;-28
2021/12/10 01:24:06;;;;;;;2.30;1.10;;;;;;;13.70;43.61;95793.13;5033434;28;20033;-28
2021/12/10 01:29:06;;;;;;;1.65;1.40;;;;;;;13.74;43.59;95799.13;5033372;28;20021;-28
2021/12/10 01:31:32;;;;;;;2.22;1.40;;;;;;;13.73;43.62;95802.31;5033098;28;20033;-28
2021/12/10 01:33:58;;;;;;;2.63;1.20;;;;;;;13.78;43.39;95798.97;5033063;28;20032;-28
2021/12/10 01:36:24;;;;;;;2.60;1.77;;;;;;;13.71;43.58;95796.59;5033027;28;20021;-28
2021/12/10 01:38:53;;;;;;;2.63;1.60;;;;;;;13.69;43.63;95785.41;5032937;28;20029;-28
2021/12/10 01:41:20;;;;;;;1.92;1.45;;;;;;;13.71;43.76;95791.16;5037097;28;20030;-28
2021/12/10 01:43:51;;;;;;;2.67;1.48;;;;;;;13.66;43.57;95787.06;5037183;28;20144;-28
2021/12/10 01:46:25;;;;;;;3.33;1.65;;;;;;;13.67;43.75;95783.13;5037083;28;20383;-28
2021/12/10 01:49:03;;;;;;;4.05;2.03;;;;;;;13.70;43.42;95782.22;5037341;28;20045;-28
2021/12/10 01:51:32;;;;;;;3.38;1.92;;;;;;;13.71;43.62;95785.69;5036853;28;20031;-28
2021/12/10 01:54:08;;;;;;;3.60;1.63;;;;;;;13.72;43.18;95779.78;5036746;28;20587;-28
2021/12/10 01:56:36;;;;;;;2.63;1.38;;;;;;;13.70;43.25;95781.47;5037095;28;20399;-28
2021/12/10 01:59:04;;;;;;;2.30;1.58;;;;;;;13.66;43.24;95774.22;5036507;28;20037;-28
2021/12/10 02:01:35;;;;;;;2.40;1.52;;;;;;;13.67;43.56;95766.78;5036590;28;20073;-28
2021/12/10 02:04:04;;;;;;;1.65;1.30;;;;;;;13.64;43.26;95767.72;5036488;28;20079;-28
2021/12/10 02:06:30;;;;;;;3.42;1.42;;;;;;;13.67;43.15;95761.34;5036741;28;20028;-28
2021/12/10 02:08:56;;;;;;;2.45;1.17;;;;;;;13.69;43.21;95761.63;5036554;28;20401;-28
2021/12/10 02:11:22;;;;;;;1.58;1.05;;;;;;;13.66;43.17;95757.88;5036428;28;20035;-28
2021/12/10 02:13:48;;;;;;;2.25;1.20;;;;;;;13.60;43.30;95756.97;5036538;28;20033;-28
2021/12/10 02:16:14;;;;;;;1.70;1.10;;;;;;;13.59;43.08;95755.50;5036683;28;20029;-28
2021/12/10 02:18:41;;;;;;;1.58;1.20;;;;;;;13.65;42.90;95755.59;5036314;28;20040;-28
2021/12/10 02:21:09;;;;;;;1.75;1.10;;;;;;;13.60;42.82;95748.78;5036410;28;20475;-28
2021/12/10 02:23:38;;;;;;;2.75;1.00;;;;;;;13.60;43.03;95737.16;5036318;28;20082;-28
2021/12/10 02:26:07;;;;;;;1.33;1.00;;;;;;;13.59;42.85;95724.75;5036064;28;20025;-28
2021/12/10 02:28:34;;;;;;;1.58;0.93;;;;;;;13.57;43.13;95721.75;5036102;28;20026;-28
2021/12/10 02:31:00;;;;;;;0.90;0.70;;;;;;;13.55;42.71;95729.63;5036168;28;20140;-28
2021/12/10 02:33:26;;;;;;;0.95;0.80;;;;;;;13.46;42.83;95721.50;5036201;28;20029;-28
2021/12/10 02:35:51;;;;;;;1.60;0.80;;;;;;;13.48;42.92;95733.41;5036084;28;20036;-28
2021/12/10 02:38:19;;;;;;;1.88;1.00;;;;;;;13.44;43.04;95734.81;5036034;28;20017;-28
2021/12/10 02:40:48;;;;;;;1.15;0.70;;;;;;;13.54;42.43;95714.50;5035897;28;20026;-28
2021/12/10 02:43:15;;;;;;;1.10;0.80;;;;;;;13.52;42.73;95712.22;5035841;28;20036;-28
2021/12/10 02:45:43;;;;;;;2.20;1.00;;;;;;;13.57;42.76;95708.13;5035880;28;20021;-28
2021/12/10 02:48:09;;;;;;;0.90;0.70;;;;;;;13.57;42.40;95711.59;5035919;28;20021;-28
2021/12/10 02:50:36;;;;;;;0.60;0.50;;;;;;;13.52;42.56;95706.03;5034937;28;20018;-28
2021/12/10 02:53:04;;;;;;;1.60;0.90;;;;;;;13.52;42.55;95700.56;5035473;28;20047;-28
2021/12/10 02:55:31;;;;;;;0.70;0.65;;;;;;;13.48;42.83;95697.25;5035579;28;20025;-28
2021/12/10 02:58:00;;;;;;;0.73;0.60;;;;;;;13.50;42.60;95700.28;5035395;28;20049;-28
2021/12/10 03:00:33;;;;;;;0.60;0.50;;;;;;;13.50;42.43;95694.81;5035483;28;20025;-28
2021/12/10 03:03:01;;;;;;;0.75;0.70;;;;;;;13.49;42.37;95696.03;5035926;28;20061;-28
2021/12/10 03:05:26;;;;;;;2.58;0.98;;;;;;;13.44;42.59;95683.06;5035351;28;20390;-28
2021/12/10 03:07:52;;;;;;;0.52;0.52;;;;;;;13.47;42.21;95699.25;5035345;28;20475;-28
2021/12/10 03:10:24;;;;;;;1.48;0.95;;;;;;;13.49;42.50;95701.50;5035496;28;20052;-28
2021/12/10 03:12:49;;;;;;;1.02;0.70;;;;;;;13.49;42.60;95706.94;5035455;28;20384;-28
2021/12/10 03:15:17;;;;;;;1.08;0.73;;;;;;;13.51;42.38;95709.97;5035132;28;20025;-28
2021/12/10 03:17:44;;;;;;;0.98;0.70;;;;;;;13.47;42.28;95707.44;5035216;28;20053;-28
2021/12/10 03:20:14;;;;;;;0.50;0.50;;;;;;;13.45;42.53;95704.41;5035256;28;20438;-28
2021/12/10 03:22:42;;;;;;;0.60;0.50;;;;;;;13.43;42.69;95697.91;5034995;28;20080;-28
2021/12/10 03:25:10;;;;;;;0.85;0.68;;;;;;;13.45;42.33;95693.50;5035195;28;20025;-28
2021/12/10 03:27:36;;;;;;;0.88;0.65;;;;;;;13.43;42.47;95697.91;5035213;28;20097;-28
2021/12/10 03:30:04;;;;;;;1.23;0.70;;;;;;;13.39;42.24;95700.03;5033659;28;20049;-28
2021/12/10 03:32:32;;;;;;;0.63;0.52;;;;;;;13.36;42.28;95688.09;5034930;28;20025;-28
2021/12/10 03:35:00;;;;;;;0.82;0.60;;;;;;;13.44;42.31;95683.06;5034847;28;20061;-28
2021/12/10 03:37:26;;;;;;;1.10;0.70;;;;;;;13.45;42.25;95688.06;5034907;28;20025;-28
2021/12/10 03:39:53;;;;;;;1.17;0.60;;;;;;;13.42;42.27;95685.50;5034797;28;20415;-28
2021/12/10 03:42:21;;;;;;;0.88;0.75;;;;;;;13.38;42.38;95693.06;5034623;28;20021;-28
2021/12/10 03:44:47;;;;;;;1.85;0.70;;;;;;;13.31;42.06;95694.19;5034687;28;20464;-28
2021/12/10 03:47:12;;;;;;;1.20;0.63;;;;;;;13.35;42.02;95686.63;5034430;28;20040;-28
2021/12/10 03:49:39;;;;;;;0.90;0.65;;;;;;;13.42;42.15;95693.69;5034546;28;20021;-28
2021/12/10 03:52:07;;;;;;;1.15;0.90;;;;;;;13.37;42.10;95683.41;5034483;28;20139;-28
2021/12/10 03:54:33;;;;;;;0.80;0.60;;;;;;;13.38;41.88;95679.47;5034598;28;20469;-28
2021/12/10 03:56:58;;;;;;;0.60;0.60;;;;;;;13.38;42.10;95680.22;5034296;28;20056;-28
2021/12/10 03:59:25;;;;;;;0.88;0.70;;;;;;;13.35;42.27;95691.31;5034324;28;20111;-28
2021/12/10 04:01:54;;;;;;;1.10;0.80;;;;;;;13.38;42.15;95691.09;5034074;28;20042;-28
2021/12/10 04:04:32;;;;;;;0.95;0.70;;;;;;;13.42;41.71;95693.69;5032996;28;20022;-28
2021/12/10 04:07:02;;;;;;;1.00;0.70;;;;;;;13.40;41.77;95687.94;5034174;28;20091;-28
2021/12/10 04:09:27;;;;;;;1.05;0.70;;;;;;;13.35;41.93;95694.78;5034302;28;20061;-28
2021/12/10 04:11:55;;;;;;;1.42;0.80;;;;;;;13.38;41.61;95687.63;5033983;28;20072;-28
2021/12/10 04:14:22;;;;;;;1.10;0.70;;;;;;;13.40;41.70;95687.94;5034107;28;20018;-28
2021/12/10 04:16:54;;;;;;;1.90;0.77;;;;;;;13.33;42.11;95682.84;5034219;28;20029;-28
2021/12/10 04:19:20;;;;;;;1.10;0.80;;;;;;;13.30;41.72;95690.72;5034239;28;20025;-28
2021/12/10 04:21:46;;;;;;;0.60;0.57;;;;;;;13.34;41.63;95692.50;5033811;28;20112;-28
2021/12/10 04:24:17;;;;;;;2.00;0.80;;;;;;;13.32;41.69;95689.50;5033990;28;20112;-28
2021/12/10 04:26:44;;;;;;;0.70;0.60;;;;;;;13.36;41.54;95693.53;5033880;28;20032;-28
2021/12/10 04:29:10;;;;;;;0.60;0.50;;;;;;;13.32;41.88;95689.50;5033886;28;20080;-28
2021/12/10 04:31:36;;;;;;;0.80;0.70;;;;;;;13.27;42.01;95691.63;5033782;28;20029;-28
2021/12/10 04:34:03;;;;;;;0.70;0.60;;;;;;;13.27;41.74;95685.41;5033850;28;20493;-28
2021/12/10 04:36:29;;;;;;;1.10;0.80;;;;;;;13.18;41.88;95690.91;5032401;28;20518;-28
2021/12/10 04:38:54;;;;;;;0.60;0.52;;;;;;;13.25;41.74;95691.31;5032441;28;20021;-28
2021/12/10 04:41:20;;;;;;;1.92;0.73;;;;;;;13.30;41.94;95679.06;5032708;28;20028;-28
2021/12/10 04:43:47;;;;;;;0.68;0.57;;;;;;;13.25;42.00;95683.16;5032388;28;20025;-28
2021/12/10 04:46:14;;;;;;;0.70;0.60;;;;;;;13.23;41.99;95682.84;5033687;28;20059;-28
2021/12/10 04:49:05;;;;;;;0.70;0.52;;;;;;;13.29;41.82;95677.56;5033598;28;20017;-28
2021/12/10 04:51:36;;;;;;;1.35;0.70;;;;;;;13.28;41.77;95676.03;5033729;28;20036;-28
2021/12/10 04:54:05;;;;;;;1.05;0.70;;;;;;;13.35;41.79;95680.41;5033393;28;20697;-28
2021/12/10 04:56:32;;;;;;;0.70;0.50;;;;;;;13.32;41.65;95682.06;5033491;28;20029;-28
2021/12/10 04:59:00;;;;;;;0.82;0.60;;;;;;;13.34;41.49;95687.06;5033147;28;20060;-28
2021/12/10 05:01:28;;;;;;;0.68;0.50;;;;;;;13.36;41.80;95690.06;5033300;28;20059;-28
2021/12/10 05:03:53;;;;;;;0.45;0.40;;;;;;;13.33;41.55;95699.19;5033731;28;20021;-28
2021/12/10 05:06:19;;;;;;;0.73;0.60;;;;;;;13.30;41.76;95690.72;5033201;28;20364;-28
2021/12/10 05:08:45;;;;;;;0.47;0.45;;;;;;;13.26;41.75;95690.13;5033262;28;20025;-28
2021/12/10 05:11:12;;;;;;;0.80;0.50;;;;;;;13.27;41.82;95702.50;5033525;28;20416;-28
2021/12/10 05:13:40;;;;;;;0.77;0.70;;;;;;;13.29;42.04;95694.66;5032895;28;20383;-28
2021/12/10 05:16:06;;;;;;;0.55;0.47;;;;;;;13.24;41.81;95697.97;5033213;28;20032;-28
2021/12/10 05:18:37;;;;;;;0.68;0.50;;;;;;;13.25;42.00;95699.50;5033075;28;20383;-28
2021/12/10 05:21:05;;;;;;;0.57;0.55;;;;;;;13.31;41.93;95702.34;5033303;28;20036;-28
2021/12/10 05:23:31;;;;;;;0.52;0.52;;;;;;;13.28;41.62;95703.28;5031842;28;20025;-28
2021/12/10 05:25:56;;;;;;;0.60;0.50;;;;;;;13.32;41.77;95706.59;5033229;28;20063;-28
2021/12/10 05:28:22;;;;;;;0.90;0.60;;;;;;;13.26;41.96;95706.44;5032982;28;20454;-29
2021/12/10 05:30:49;;;;;;;0.70;0.52;;;;;;;13.33;41.54;95716.28;5032972;28;20025;-29
2021/12/10 05:33:18;;;;;;;0.77;0.60;;;;;;;13.28;42.11;95708.72;5033122;28;20025;-29
2021/12/10 05:35:47;;;;;;;0.70;0.50;;;;;;;13.26;41.97;95702.97;5031815;28;20087;-29
2021/12/10 05:38:14;;;;;;;0.73;0.63;;;;;;;13.29;41.42;95708.25;5033151;28;20100;-29
2021/12/10 05:40:40;;;;;;;0.80;0.60;;;;;;;13.18;41.60;95715.41;5032958;28;20040;-29
2021/12/10 05:43:06;;;;;;;0.90;0.70;;;;;;;13.17;41.59;95728.28;5032878;28;20590;-29
2021/12/10 05:45:32;;;;;;;1.10;0.90;;;;;;;13.27;41.80;95729.00;5032916;28;20032;-29
2021/12/10 05:47:58;;;;;;;1.00;0.90;;;;;;;13.25;41.64;95737.63;5031572;28;20033;-29
2021/12/10 05:50:26;;;;;;;1.45;1.10;;;;;;;13.23;41.37;95747.44;5024801;28;20038;-29
2021/12/10 05:52:52;;;;;;;1.58;1.23;;;;;;;13.26;41.71;95757.44;5011143;28;20037;-29
2021/12/10 05:55:19;;;;;;;1.73;1.38;;;;;;;13.26;41.34;95760.91;5023999;28;20032;-29
2021/12/10 05:57:45;;;;;;;2.95;1.50;;;;;;;13.22;41.60;95759.59;5030836;28;20028;-28
2021/12/10 06:00:15;;;;;;;2.55;1.70;;;;;;;13.25;41.67;95758.66;5030558;28;20112;-28
2021/12/10 06:02:41;;;;;;;3.45;2.00;;;;;;;13.21;41.56;95756.09;5029622;28;20483;-28
2021/12/10 06:05:08;;;;;;;4.85;2.60;;;;;;;13.20;41.57;95754.59;5030983;28;20065;-28
2021/12/10 06:07:33;;;;;;;4.25;3.03;;;;;;;13.14;41.65;95753.69;5017278;28;20468;-28
2021/12/10 06:09:59;;;;;;;4.40;3.55;;;;;;;13.14;42.04;95759.13;5009829;28;20029;-28
2021/12/10 06:12:24;;;;;;;5.60;3.92;;;;;;;13.12;42.28;95769.69;5011055;28;20041;-28
2021/12/10 06:14:50;;;;;;;5.10;3.47;;;;;;;13.21;41.92;95771.69;5011146;28;20030;-28
2021/12/10 06:17:17;;;;;;;4.80;3.30;;;;;;;13.16;41.73;95767.59;5011006;28;20093;-28
2021/12/10 06:19:43;;;;;;;4.82;3.33;;;;;;;13.27;41.71;95776.03;5010897;28;20029;-28
2021/12/10 06:22:10;;;;;;;5.35;3.30;;;;;;;13.23;41.73;95775.44;5007898;28;20036;-28
2021/12/10 06:24:35;;;;;;;3.53;3.10;;;;;;;13.26;41.36;95768.31;5010659;28;20029;-28
2021/12/10 06:27:01;;;;;;;3.65;2.83;;;;;;;13.26;41.57;95771.81;5012607;28;20025;-28
2021/12/10 06:29:27;;;;;;;4.57;2.90;;;;;;;13.26;41.53;95768.31;5014410;28;20030;-28
2021/12/10 06:31:54;;;;;;;4.30;3.08;;;;;;;13.28;41.43;95768.63;5014252;28;20034;-28
2021/12/10 06:34:20;;;;;;;7.10;4.63;;;;;;;13.26;41.30;95776.50;5014399;28;20061;-28
2021/12/10 06:36:48;;;;;;;9.45;5.65;;;;;;;13.19;41.86;95776.84;5014070;28;20065;-28
2021/12/10 06:39:19;;;;;;;8.25;5.03;;;;;;;13.19;41.49;95777.59;5014241;28;20033;-28
2021/12/10 06:41:46;;;;;;;8.52;5.63;;;;;;;13.29;41.11;95783.75;5014279;28;20063;-28
2021/12/10 06:44:12;;;;;;;8.80;5.53;;;;;;;13.26;41.66;95777.25;5028628;28;20035;-28
2021/12/10 06:46:37;;;;;;;10.07;6.00;;;;;;;13.25;41.62;95775.75;5033908;28;20021;-28
2021/12/10 06:49:03;;;;;;;9.65;5.68;;;;;;;13.18;41.31;95781.53;5032095;28;20022;-28
2021/12/10 06:51:29;;;;;;;9.75;5.63;;;;;;;13.26;41.38;95781.94;5033797;28;20029;-28
2021/12/10 06:53:55;;;;;;;8.98;5.13;;;;;;;13.18;41.98;95772.59;5033528;28;20029;-28
2021/12/10 06:56:22;;;;;;;7.32;4.50;;;;;;;13.14;42.04;95770.03;5033677;28;20027;-28
2021/12/10 06:58:49;;;;;;;8.68;5.25;;;;;;;13.23;41.71;95778.16;5033253;28;20558;-28
2021/12/10 07:01:19;;;;;;;7.38;4.55;;;;;;;13.21;41.85;95775.16;5033463;28;20486;-28
2021/12/10 07:03:45;;;;;;;7.63;4.38;;;;;;;13.25;41.66;95775.75;5033503;28;20029;-28
2021/12/10 07:06:11;;;;;;;6.65;4.30;;;;;;;13.18;41.78;95772.59;5033464;28;20475;-28
2021/12/10 07:08:39;;;;;;;4.32;3.38;;;;;;;13.21;41.42;95769.72;5033420;28;20038;-28
2021/12/10 07:11:08;;;;;;;5.63;3.90;;;;;;;13.18;42.00;95758.97;5032518;28;20040;-28
2021/12/10 07:13:35;;;;;;;5.07;3.47;;;;;;;13.18;41.99;95754.28;5031854;28;20029;-28
2021/12/10 07:16:01;;;;;;;6.40;3.33;;;;;;;13.18;42.06;95743.41;5032397;28;20087;-28
2021/12/10 07:18:26;;;;;;;3.55;2.88;;;;;;;13.15;41.76;95746.28;5031004;28;20029;-28
2021/12/10 07:20:52;;;;;;;5.05;3.00;;;;;;;13.20;42.30;95743.69;5033018;28;20113;-28
2021/12/10 07:23:20;;;;;;;4.15;3.20;;;;;;;13.19;41.90;95741.44;5030225;28;20032;-28
2021/12/10 07:25:46;;;;;;;4.00;2.78;;;;;;;13.18;42.29;95739.94;5032488;28;20113;-28
2021/12/10 07:28:13;;;;;;;4.93;3.15;;;;;;;13.23;41.99;95745.50;5033214;28;20025;-28
2021/12/10 07:30:39;;;;;;;5.22;3.50;;;;;;;13.25;42.40;95742.31;5033035;28;20025;-28
2021/12/10 07:33:06;;;;;;;5.13;3.05;;;;;;;13.21;42.23;95739.78;5033021;28;20091;-28
2021/12/10 07:35:33;;;;;;;4.05;2.88;;;;;;;13.19;42.63;95742.19;5064321;28;20068;-28
2021/12/10 07:37:59;;;;;;;3.75;2.75;;;;;;;13.13;42.60;95733.09;5032267;28;20048;-28
2021/12/10 07:40:28;;;;;;;3.17;2.42;;;;;;;13.12;42.61;95734.31;5032739;28;20029;-28
2021/12/10 07:42:54;;;;;;;4.60;2.60;;;;;;;13.14;42.37;95731.91;5028780;28;20025;-28
2021/12/10 07:45:21;;;;;;;4.30;2.67;;;;;;;13.07;42.91;95737.66;5014511;28;20037;-28
2021/12/10 07:47:50;;;;;;;3.75;2.72;;;;;;;13.14;42.66;95729.19;5031887;28;20113;-28
2021/12/10 07:50:21;;;;;;;4.43;2.90;;;;;;;13.14;42.63;95733.84;5032687;28;20029;-28
2021/12/10 07:52:46;;;;;;;3.15;2.58;;;;;;;13.06;42.79;95729.97;5032417;28;20025;-28
2021/12/10 07:55:15;;;;;;;3.88;2.35;;;;;;;13.13;42.86;95735.81;5032325;28;20040;-28
2021/12/10 07:57:42;;;;;;;3.13;2.30;;;;;;;13.18;42.91;95732.50;5027694;28;20022;-28
2021/12/10 08:00:13;;;;;;;3.63;2.50;;;;;;;13.18;42.88;95732.50;5031327;28;20056;-28
2021/12/10 08:02:38;;;;;;;4.13;2.85;;;;;;;13.10;43.26;95725.13;5030427;28;20171;-28
2021/12/10 08:05:05;;;;;;;4.07;3.22;;;;;;;13.13;42.97;95729.63;5032163;28;20125;-28
2021/12/10 08:07:31;;;;;;;4.28;2.80;;;;;;;13.10;42.98;95716.94;5032078;28;20041;-28
2021/12/10 08:09:56;;;;;;;3.25;2.67;;;;;;;13.21;43.10;95726.16;5032120;28;20021;-28
2021/12/10 08:12:22;;;;;;;4.30;3.20;;;;;;;13.14;43.06;95723.75;5031772;28;20053;-28
2021/12/10 08:14:52;;;;;;;3.67;2.45;;;;;;;13.11;43.47;95727.34;5032138;28;20100;-28
2021/12/10 08:17:19;;;;;;;3.85;2.85;;;;;;;13.14;42.97;95729.19;5032253;28;20037;-28
2021/12/10 08:19:46;;;;;;;5.47;3.28;;;;;;;13.13;43.11;95724.19;5032096;28;20056;-28
2021/12/10 08:22:12;;;;;;;3.97;2.85;;;;;;;13.13;43.35;95716.75;5030247;28;20028;-28
2021/12/10 08:24:37;;;;;;;3.50;2.50;;;;;;;13.13;43.11;95719.47;5031541;28;20029;-28
2021/12/10 08:27:03;;;;;;;4.70;3.08;;;;;;;13.21;43.04;95715.25;5030456;28;20517;-28
2021/12/10 08:29:29;;;;;;;4.00;2.90;;;;;;;13.13;42.96;95718.72;5031967;28;20033;-28
2021/12/10 08:31:55;;;;;;;4.57;2.88;;;;;;;13.18;43.09;95712.69;5031826;28;20080;-28
2021/12/10 08:34:21;;;;;;;4.30;2.97;;;;;;;13.03;43.40;95719.97;5031651;28;20053;-28
2021/12/10 08:36:47;;;;;;;4.78;3.13;;;;;;;13.11;43.33;95711.03;5031283;28;20041;-28
2021/12/10 08:39:14;;;;;;;3.53;2.78;;;;;;;13.15;42.99;95711.66;5031698;28;20037;-28
2021/12/10 08:41:40;;;;;;;4.57;2.85;;;;;;;13.18;43.38;95704.53;5031884;28;20024;-28
2021/12/10 08:44:07;;;;;;;3.80;2.65;;;;;;;13.13;43.23;95710.56;5031656;28;20057;-28
2021/12/10 08:46:38;;;;;;;6.07;3.45;;;;;;;13.13;43.07;95702.41;5031812;28;20037;-28
2021/12/10 08:49:05;;;;;;;5.32;3.50;;;;;;;13.06;43.58;95700.78;5030664;28;20384;-28
2021/12/10 08:51:36;;;;;;;9.98;6.28;;;;;;;11.42;46.36;95698.13;5014889;28;20028;-27
2021/12/10 08:54:03;;;;;;;10.55;6.15;;;;;;;11.65;45.36;95707.69;5011456;28;20372;-28
2021/12/10 08:56:30;;;;;;;9.35;5.78;;;;;;;12.20;44.36;95701.13;5013589;28;20417;-28
2021/12/10 08:58:57;;;;;;;8.10;5.72;;;;;;;12.58;43.39;95710.75;5013294;28;20050;-28
2021/12/10 09:01:30;;;;;;;8.07;5.03;;;;;;;12.75;43.11;95709.16;5013746;28;20036;-28
2021/12/10 09:03:58;;;;;;;7.78;4.93;;;;;;;12.92;42.88;95704.16;5013591;28;20022;-28
2021/12/10 09:06:27;;;;;;;6.93;4.72;;;;;;;12.90;42.76;95695.69;5013627;28;20100;-28
2021/12/10 09:08:54;;;;;;;9.43;5.53;;;;;;;12.85;43.12;95693.59;5013499;28;20045;-28
2021/12/10 09:11:20;;;;;;;9.15;4.90;;;;;;;12.87;43.44;95685.69;5013513;28;20033;-28
2021/12/10 09:13:46;;;;;;;7.50;5.03;;;;;;;11.85;45.29;95684.38;5012763;28;20092;-27
2021/12/10 09:16:21;;;;;;;6.65;4.55;;;;;;;11.79;45.60;95691.59;5013295;28;20022;-28
2021/12/10 09:18:49;;;;;;;6.43;4.10;;;;;;;12.30;43.86;95693.69;5013426;28;20563;-28
2021/12/10 09:21:15;;;;;;;7.57;4.53;;;;;;;12.58;43.66;95692.47;5013258;28;20029;-28
2021/12/10 09:23:43;;;;;;;6.50;3.80;;;;;;;12.74;43.37;95693.31;5013266;28;20038;-28
2021/12/10 09:26:15;;;;;;;5.82;4.00;;;;;;;12.84;43.03;95684.69;5013337;28;20030;-28
2021/12/10 09:28:42;;;;;;;6.30;3.72;;;;;;;12.92;42.76;95672.25;5013408;28;20032;-28
2021/12/10 09:31:09;;;;;;;4.90;3.20;;;;;;;12.97;42.99;95670.13;5013290;28;20029;-28
2021/12/10 09:33:35;;;;;;;7.30;4.03;;;;;;;13.00;42.69;95664.50;5013355;28;20373;-28
2021/12/10 09:36:01;;;;;;;6.25;3.75;;;;;;;13.00;43.08;95663.72;5013358;28;20452;-28
2021/12/10 09:38:27;;;;;;;6.72;4.03;;;;;;;12.95;43.06;95657.72;5013334;28;20080;-28
2021/12/10 09:41:03;;;;;;;6.85;4.10;;;;;;;12.95;42.81;95660.44;5013462;28;20038;-28
2021/12/10 09:43:31;;;;;;;5.22;3.60;;;;;;;13.08;42.78;95646.63;5013238;28;20030;-28
2021/12/10 09:45:57;;;;;;;6.75;4.60;;;;;;;13.04;42.81;95648.00;5013508;28;20037;-28
2021/12/10 09:48:25;;;;;;;5.53;4.13;;;;;;;13.02;43.25;95628.66;5013198;28;20061;-28
2021/12/10 09:50:59;;;;;;;7.53;4.20;;;;;;;13.00;42.84;95618.22;5013297;28;20022;-28
2021/12/10 09:53:26;;;;;;;5.93;4.18;;;;;;;13.02;42.75;95620.47;5013106;28;20057;-28
2021/12/10 09:55:53;;;;;;;6.70;4.25;;;;;;;13.11;42.88;95623.91;5013249;28;20118;-28
2021/12/10 09:58:19;;;;;;;4.82;3.50;;;;;;;13.00;43.13;95601.88;5013106;28;20050;-28
2021/12/10 10:00:55;;;;;;;4.90;3.50;;;;;;;13.09;43.02;95599.13;5014419;28;20026;-28
2021/12/10 10:03:26;;;;;;;5.13;3.60;;;;;;;13.05;43.00;95593.09;5016906;28;20097;-28
2021/12/10 10:05:52;;;;;;;5.53;3.95;;;;;;;13.07;42.80;95585.22;5017297;28;20026;-28
2021/12/10 10:08:24;;;;;;;5.10;3.45;;;;;;;13.07;42.91;95566.19;5016789;28;20052;-28
2021/12/10 10:10:57;;;;;;;5.18;3.60;;;;;;;13.08;43.05;95573.13;5017138;28;20022;-28
2021/12/10 10:13:29;;;;;;;4.72;3.50;;;;;;;13.06;43.01;95561.94;5016826;28;20113;-28
2021/12/10 10:15:57;;;;;;;5.50;3.45;;;;;;;13.11;43.38;95566.75;5016542;28;20022;-28
2021/12/10 10:18:24;;;;;;;5.45;3.58;;;;;;;13.09;43.06;95563.00;5016898;28;20042;-28
2021/12/10 10:20:54;;;;;;;4.90;3.38;;;;;;;13.10;43.22;95551.66;5016378;28;20484;-28
2021/12/10 10:23:20;;;;;;;5.15;3.47;;;;;;;13.08;43.45;95558.75;5016518;28;20084;-28
2021/12/10 10:25:51;;;;;;;6.10;4.43;;;;;;;13.08;43.09;95554.06;5016444;28;20369;-28
2021/12/10 10:28:16;;;;;;;7.72;5.20;;;;;;;13.07;43.46;95555.28;5016243;28;20022;-28
2021/12/10 10:30:56;;;;;;;7.70;5.45;;;;;;;13.11;43.16;95542.25;5016533;28;20030;-28
2021/12/10 10:33:22;;;;;;;8.93;6.28;;;;;;;13.11;43.49;95536.03;5016256;28;20025;-28
2021/12/10 10:35:51;;;;;;;7.65;5.57;;;;;;;13.18;43.09;95531.03;5016374;28;20022;-28
2021/12/10 10:38:18;;;;;;;8.65;5.43;;;;;;;13.06;43.54;95529.28;5016207;28;20018;-28
2021/12/10 10:40:50;;;;;;;5.93;4.50;;;;;;;13.13;43.34;95520.00;5016100;28;20109;-28
2021/12/10 10:43:15;;;;;;;6.32;4.68;;;;;;;13.10;43.29;95513.53;5016209;28;20022;-28
2021/12/10 10:45:44;;;;;;;7.78;4.85;;;;;;;13.07;43.57;95505.53;5016213;28;20369;-28
2021/12/10 10:48:11;;;;;;;6.57;4.65;;;;;;;13.05;43.55;95497.84;5016228;28;20400;-28
2021/12/10 10:50:47;;;;;;;7.18;5.25;;;;;;;13.08;43.53;95488.75;5026476;28;20072;-28
2021/12/10 10:53:17;;;;;;;5.63;4.03;;;;;;;13.00;43.55;95487.56;5033642;28;20037;-28
2021/12/10 10:55:56;;;;;;;6.70;4.65;;;;;;;13.05;43.60;95478.03;5035326;28;20083;-28
2021/12/10 10:58:26;;;;;;;7.70;4.63;;;;;;;13.07;43.74;95468.19;5035506;28;20419;-28
2021/12/10 11:01:01;;;;;;;5.78;4.35;;;;;;;13.03;43.60;95462.16;5035476;28;20026;-28
2021/12/10 11:03:39;;;;;;;5.72;4.32;;;;;;;13.00;43.91;95454.16;5035474;28;20096;-28
2021/12/10 11:06:13;;;;;;;6.90;4.22;;;;;;;13.01;43.62;95450.22;5035673;28;20045;-28
2021/12/10 11:08:47;;;;;;;6.25;4.40;;;;;;;13.05;43.68;95439.91;5035574;28;20034;-28
2021/12/10 11:11:28;;;;;;;5.93;4.40;;;;;;;13.10;43.66;95426.44;5035352;28;20036;-28
2021/12/10 11:14:28;;;;;;;5.95;4.45;;;;;;;13.05;43.86;95407.25;5034931;28;20133;-28
2021/12/10 11:17:01;;;;;;;6.93;4.03;;;;;;;13.08;43.40;95407.09;5033754;28;20391;-28
2021/12/10 11:19:29;;;;;;;7.15;4.45;;;;;;;13.05;43.87;95410.72;5035215;28;20052;-28
2021/12/10 11:22:13;;;;;;;7.30;5.15;;;;;;;13.10;43.70;95399.22;5034995;28;20021;-28
2021/12/10 11:24:45;;;;;;;5.82;4.10;;;;;;;13.05;43.70;95393.66;5035028;28;20017;-28
2021/12/10 11:27:22;;;;;;;6.07;4.65;;;;;;;13.10;43.74;95393.00;5035102;28;20024;-28
2021/12/10 11:30:07;;;;;;;6.63;4.25;;;;;;;13.07;44.14;95393.94;5035063;28;20426;-28
2021/12/10 11:32:36;;;;;;;7.05;4.63;;;;;;;13.10;43.73;95387.56;5034303;28;20092;-28
2021/12/10 11:35:13;;;;;;;7.07;5.15;;;;;;;13.04;44.07;95387.44;5034942;28;20032;-28
2021/12/10 11:37:57;;;;;;;7.30;4.70;;;;;;;13.08;44.05;95368.97;5033533;28;20051;-28
2021/12/10 11:40:51;;;;;;;7.90;5.43;;;;;;;13.06;44.22;95367.94;5034711;28;20030;-28
2021/12/10 11:43:20;;;;;;;8.40;4.90;;;;;;;13.02;44.36;95359.94;5034770;28;20104;-28
2021/12/10 11:46:03;;;;;;;7.07;5.05;;;;;;;13.09;44.15;95362.31;5034825;28;20055;-28
2021/12/10 11:48:31;;;;;;;6.30;4.57;;;;;;;13.09;44.03;95353.41;5034512;28;20025;-28